Terminal Aerodrome Forecast
Issued by NWS Blacksburg, VA

Home | Current Version | Previous Version | Text Only | Print | Product List | Glossary On
Versions: 1 2 3 4 5 6 7 8 9 10 11 12 13 14 15 16 17 18 19 20 21 22 23 24 25 26 27 28
000
FTUS41 KRNK 251139
TAFBLF
TAF
KBLF 251139Z 2512/2612 09004KT P6SM -RA OVC035
     FM251400 13007KT 5SM -RA BR OVC012
     FM251800 13009KT 4SM -RA BR OVC005
     FM260000 VRB06KT 3SM -RADZ BR OVC007
     FM260800 28006KT 1 1/2SM -RADZ BR OVC004=

USA.gov is the U.S. government's official web portal to all federal, state and local government web resources and services.